Time;durP1;ratioP1;P1;durP2;ratioP2;P2;SDS_P1;SDS_P2;PMS_P1;PMS_P2;Temp;Humidity;BMP_temperature;BMP_pressure;BME280_temperature;BME280_humidity;BME280_pressure;Samples;Min_cycle;Max_cycle;Signal;HPM_P1;HPM_P2
2021/04/29 00:02:01;;;;;;;20.97;15.93;;;11.70;99.80;;;;;;6121658;23;20483;-86
2021/04/29 00:04:30;;;;;;;20.57;15.07;;;11.60;99.80;;;;;;6095910;23;20434;-86
2021/04/29 00:06:58;;;;;;;21.97;14.97;;;11.60;99.80;;;;;;6128794;23;20438;-85
2021/04/29 00:09:25;;;;;;;21.57;16.83;;;11.60;99.80;;;;;;6145670;23;20467;-85
2021/04/29 00:11:52;;;;;;;19.07;15.40;;;11.70;99.80;;;;;;6138941;23;20419;-86
2021/04/29 00:14:19;;;;;;;21.70;17.50;;;11.60;99.80;;;;;;6133625;23;20450;-86
2021/04/29 00:16:46;;;;;;;21.60;16.17;;;11.70;99.80;;;;;;6151426;23;20444;-85
2021/04/29 00:19:13;;;;;;;20.57;17.03;;;11.70;99.80;;;;;;6151735;23;20433;-85
2021/04/29 00:21:41;;;;;;;22.60;16.40;;;11.70;99.80;;;;;;6140840;23;20435;-86
2021/04/29 00:24:09;;;;;;;19.53;15.83;;;11.70;99.80;;;;;;6131297;23;20527;-85
2021/04/29 00:26:36;;;;;;;20.63;15.43;;;11.70;99.80;;;;;;6140523;23;20431;-85
2021/04/29 00:29:03;;;;;;;27.67;17.10;;;11.70;99.80;;;;;;6136832;23;20476;-85
2021/04/29 00:31:30;;;;;;;23.70;16.67;;;11.70;99.80;;;;;;6141369;23;20508;-85
2021/04/29 00:33:57;;;;;;;22.60;17.17;;;11.70;99.80;;;;;;6139381;23;20463;-86
2021/04/29 00:36:28;;;;;;;23.90;17.53;;;11.60;99.80;;;;;;6139840;23;20442;-85
2021/04/29 00:38:55;;;;;;;23.10;16.77;;;11.60;99.80;;;;;;6145890;23;20850;-86
2021/04/29 00:41:23;;;;;;;22.03;17.33;;;11.70;99.80;;;;;;6146129;23;20444;-86
2021/04/29 00:43:51;;;;;;;20.60;15.53;;;11.60;99.80;;;;;;6130211;23;20441;-86
2021/04/29 00:46:23;;;;;;;22.93;17.00;;;11.60;99.80;;;;;;6149161;23;20726;-85
2021/04/29 00:48:50;;;;;;;21.70;15.57;;;11.60;99.80;;;;;;6148391;23;20442;-86
2021/04/29 00:51:19;;;;;;;22.70;16.40;;;11.60;99.80;;;;;;6151469;23;20453;-86
2021/04/29 00:53:46;;;;;;;22.20;16.60;;;11.70;99.80;;;;;;6126614;23;20440;-86
2021/04/29 00:56:13;;;;;;;25.37;18.20;;;11.70;99.80;;;;;;6130398;23;20434;-86
2021/04/29 00:58:42;;;;;;;22.67;16.60;;;11.70;99.80;;;;;;6132907;23;20436;-86
2021/04/29 01:01:09;;;;;;;23.03;17.70;;;11.70;99.80;;;;;;6135585;23;20462;-85
2021/04/29 01:03:41;;;;;;;20.97;15.23;;;11.70;99.80;;;;;;6124617;23;20512;-85
2021/04/29 01:06:14;;;;;;;19.90;14.77;;;11.70;99.80;;;;;;6132011;23;20765;-85
2021/04/29 01:08:50;;;;;;;19.43;13.80;;;11.70;99.80;;;;;;6136419;23;20983;-86
2021/04/29 01:11:22;;;;;;;20.70;13.17;;;11.70;99.80;;;;;;6140574;23;20434;-86
2021/04/29 01:13:53;;;;;;;19.57;14.27;;;11.70;99.80;;;;;;6129515;23;20515;-85
2021/04/29 01:16:22;;;;;;;20.77;14.90;;;11.60;99.80;;;;;;6145634;23;20505;-85
2021/04/29 01:18:51;;;;;;;23.83;15.43;;;11.60;99.80;;;;;;6153934;23;20441;-85
2021/04/29 01:21:20;;;;;;;20.37;14.20;;;11.60;99.80;;;;;;6154016;23;20444;-85
2021/04/29 01:23:57;;;;;;;20.80;13.43;;;11.50;99.80;;;;;;6145463;23;20507;-85
2021/04/29 01:26:48;;;;;;;20.20;13.73;;;11.50;99.80;;;;;;6129694;23;20520;-85
2021/04/29 01:29:20;;;;;;;22.17;14.67;;;11.40;99.80;;;;;;6142692;23;20990;-85
2021/04/29 01:31:48;;;;;;;18.57;13.93;;;11.40;99.80;;;;;;6153503;23;20434;-86
2021/04/29 01:34:18;;;;;;;20.30;14.90;;;11.40;99.80;;;;;;6137590;23;20508;-85
2021/04/29 01:36:47;;;;;;;21.60;16.23;;;11.40;99.80;;;;;;6140409;23;20437;-86
2021/04/29 01:39:16;;;;;;;23.07;16.60;;;11.40;99.80;;;;;;6147621;23;21162;-86
2021/04/29 01:41:45;;;;;;;21.10;14.57;;;11.30;99.80;;;;;;6145746;23;20518;-85
2021/04/29 01:44:15;;;;;;;22.80;15.13;;;11.30;99.80;;;;;;6147316;23;20436;-85
2021/04/29 01:46:51;;;;;;;24.17;16.47;;;11.30;99.80;;;;;;6150508;23;20440;-86
2021/04/29 01:49:19;;;;;;;23.93;14.70;;;11.30;99.80;;;;;;6151588;23;20449;-85
2021/04/29 01:51:47;;;;;;;18.70;13.93;;;11.30;99.80;;;;;;6152639;23;20438;-86
2021/04/29 01:54:16;;;;;;;19.90;13.57;;;11.20;99.80;;;;;;6149890;23;20437;-86
2021/04/29 01:56:44;;;;;;;18.30;13.03;;;11.20;99.80;;;;;;6137652;23;20437;-86
2021/04/29 01:59:14;;;;;;;19.20;14.60;;;11.20;99.80;;;;;;6139173;23;20447;-85
2021/04/29 02:01:43;;;;;;;18.33;13.97;;;11.20;99.80;;;;;;6157230;23;20437;-85
2021/04/29 02:04:11;;;;;;;21.30;14.27;;;11.10;99.80;;;;;;6159202;23;20956;-86
2021/04/29 02:06:39;;;;;;;16.67;13.07;;;11.10;99.80;;;;;;6158381;23;20398;-86
2021/04/29 02:09:07;;;;;;;21.40;14.60;;;11.10;99.80;;;;;;6157035;23;20505;-86
2021/04/29 02:11:39;;;;;;;19.47;13.90;;;11.10;99.80;;;;;;6158188;23;20904;-86
2021/04/29 02:14:10;;;;;;;18.33;13.30;;;11.00;99.80;;;;;;6158763;23;20378;-86
2021/04/29 02:16:41;;;;;;;22.10;16.07;;;11.00;99.80;;;;;;6158544;23;20482;-86
2021/04/29 02:19:09;;;;;;;18.60;12.67;;;11.00;99.80;;;;;;6111414;23;20444;-86
2021/04/29 02:21:38;;;;;;;21.20;14.70;;;11.00;99.80;;;;;;6125038;23;20522;-85
2021/04/29 02:24:06;;;;;;;20.27;12.77;;;11.00;99.80;;;;;;6144181;23;20440;-86
2021/04/29 02:26:34;;;;;;;20.43;13.90;;;11.00;99.80;;;;;;6145747;23;20501;-86
2021/04/29 02:29:04;;;;;;;17.70;12.83;;;11.00;99.80;;;;;;6139837;23;20487;-85
2021/04/29 02:31:33;;;;;;;19.03;13.77;;;11.00;99.80;;;;;;6149728;23;20450;-86
2021/04/29 02:34:02;;;;;;;17.37;13.30;;;11.00;99.80;;;;;;6150115;23;20438;-88
2021/04/29 02:36:30;;;;;;;19.00;12.57;;;10.90;99.80;;;;;;6136055;23;20957;-85
2021/04/29 02:38:58;;;;;;;17.50;12.30;;;10.90;99.80;;;;;;6127580;23;20416;-85
2021/04/29 02:41:26;;;;;;;21.80;14.30;;;10.90;99.80;;;;;;6142907;23;20467;-86
2021/04/29 02:43:53;;;;;;;19.40;14.23;;;10.90;99.80;;;;;;6146765;23;20444;-85
2021/04/29 02:46:34;;;;;;;17.70;13.80;;;10.90;99.80;;;;;;6142906;23;20583;-86
2021/04/29 02:49:03;;;;;;;21.53;13.97;;;10.90;99.80;;;;;;6139981;23;20437;-86
2021/04/29 02:51:30;;;;;;;20.20;14.70;;;10.90;99.80;;;;;;6140235;23;20438;-86
2021/04/29 02:53:57;;;;;;;19.77;14.33;;;10.90;99.80;;;;;;6124345;23;20469;-86
2021/04/29 02:56:24;;;;;;;23.53;15.70;;;10.90;99.80;;;;;;6140867;23;20444;-86
2021/04/29 02:58:51;;;;;;;20.47;14.53;;;10.90;99.80;;;;;;6141777;23;20965;-85
2021/04/29 03:01:19;;;;;;;18.77;13.90;;;10.90;99.80;;;;;;6133818;23;20441;-86
2021/04/29 03:03:47;;;;;;;19.30;13.13;;;10.90;99.80;;;;;;6151477;23;20504;-86
2021/04/29 03:06:15;;;;;;;27.70;14.20;;;10.90;99.80;;;;;;6147666;23;20523;-86
2021/04/29 03:08:42;;;;;;;22.30;13.40;;;10.90;99.80;;;;;;6134036;23;20438;-86
2021/04/29 03:11:09;;;;;;;24.17;15.10;;;10.80;99.80;;;;;;6140175;23;20441;-86
2021/04/29 03:13:36;;;;;;;16.27;13.60;;;10.80;99.80;;;;;;6124095;23;20440;-86
2021/04/29 03:16:03;;;;;;;19.07;13.60;;;10.80;99.80;;;;;;6133069;23;20452;-86
2021/04/29 03:18:30;;;;;;;18.97;14.90;;;10.80;99.80;;;;;;6143491;23;20504;-86
2021/04/29 03:20:57;;;;;;;21.53;14.77;;;10.80;99.80;;;;;;6132947;23;20536;-86
2021/04/29 03:23:25;;;;;;;19.10;14.10;;;10.80;99.80;;;;;;6124283;23;20456;-86
2021/04/29 03:25:52;;;;;;;18.90;14.00;;;10.80;99.80;;;;;;6146570;23;20469;-86
2021/04/29 03:28:19;;;;;;;18.57;14.27;;;10.80;99.80;;;;;;6138377;23;20433;-86
2021/04/29 03:30:47;;;;;;;26.33;13.37;;;10.80;99.80;;;;;;6145257;23;20537;-85
2021/04/29 03:33:13;;;;;;;20.17;14.70;;;10.80;99.80;;;;;;6150964;23;20833;-86
2021/04/29 03:35:41;;;;;;;18.43;13.67;;;10.80;99.80;;;;;;6149799;23;20441;-87
2021/04/29 03:38:08;;;;;;;19.50;13.53;;;10.80;99.80;;;;;;6142847;23;20443;-86
2021/04/29 03:40:36;;;;;;;17.60;13.40;;;10.70;99.80;;;;;;6136764;23;20435;-85
2021/04/29 03:43:04;;;;;;;17.67;12.30;;;10.70;99.80;;;;;;6139271;23;20424;-85
2021/04/29 03:45:50;;;;;;;17.43;12.13;;;10.70;99.80;;;;;;6125964;23;20443;-85
2021/04/29 03:48:17;;;;;;;17.10;11.33;;;10.80;99.80;;;;;;6142189;23;20510;-86
2021/04/29 03:50:44;;;;;;;17.27;10.50;;;10.80;99.80;;;;;;6133781;23;20815;-85
2021/04/29 03:53:11;;;;;;;12.60;10.10;;;10.80;99.80;;;;;;6138830;23;20468;-86
2021/04/29 03:55:39;;;;;;;13.27;10.43;;;10.80;99.80;;;;;;6131191;23;20513;-85
2021/04/29 03:58:05;;;;;;;14.80;10.87;;;10.80;99.80;;;;;;6119197;23;21014;-85
2021/04/29 04:00:32;;;;;;;14.03;10.13;;;10.80;99.80;;;;;;6131066;23;20435;-85
2021/04/29 04:02:59;;;;;;;16.20;10.80;;;10.80;99.80;;;;;;6147067;23;20426;-85
2021/04/29 04:05:37;;;;;;;13.03;11.13;;;10.80;99.80;;;;;;6147871;23;20438;-85
2021/04/29 04:08:04;;;;;;;14.53;11.10;;;10.80;99.80;;;;;;6146351;23;21029;-85
2021/04/29 04:10:31;;;;;;;14.87;10.90;;;10.70;99.80;;;;;;6138009;23;20442;-87
2021/04/29 04:12:59;;;;;;;14.13;11.30;;;10.80;99.80;;;;;;6132982;23;20614;-85
2021/04/29 04:15:26;;;;;;;15.43;11.00;;;10.70;99.80;;;;;;6140385;23;20449;-85
2021/04/29 04:17:53;;;;;;;12.87;10.10;;;10.70;99.80;;;;;;6146333;23;20474;-85
2021/04/29 04:20:21;;;;;;;15.97;11.30;;;10.70;99.80;;;;;;6142188;23;20434;-85
2021/04/29 04:22:49;;;;;;;15.17;11.40;;;10.70;99.80;;;;;;6126144;23;20465;-85
2021/04/29 04:25:17;;;;;;;13.60;9.90;;;10.70;99.80;;;;;;6137784;23;20773;-86
2021/04/29 04:27:44;;;;;;;17.20;11.60;;;10.70;99.80;;;;;;6141211;23;20984;-86
2021/04/29 04:30:13;;;;;;;13.13;11.10;;;10.60;99.80;;;;;;6139973;23;20502;-85
2021/04/29 04:32:40;;;;;;;17.77;12.90;;;10.60;99.80;;;;;;6134386;23;20444;-84
2021/04/29 04:35:08;;;;;;;16.80;11.97;;;10.60;99.80;;;;;;6133303;23;20466;-86
2021/04/29 04:37:35;;;;;;;15.60;10.83;;;10.70;99.80;;;;;;6133780;23;20514;-85
2021/04/29 04:40:02;;;;;;;17.33;11.40;;;10.70;99.80;;;;;;6121984;23;20435;-87
2021/04/29 04:42:30;;;;;;;17.03;12.30;;;10.80;99.80;;;;;;6132583;23;21144;-85
2021/04/29 04:44:57;;;;;;;19.40;12.53;;;10.80;99.80;;;;;;6138983;23;20442;-85
2021/04/29 04:47:25;;;;;;;16.13;11.50;;;10.90;99.80;;;;;;6145434;23;20452;-85
2021/04/29 04:49:53;;;;;;;18.40;12.10;;;10.90;99.80;;;;;;6149808;23;20446;-85
2021/04/29 04:52:20;;;;;;;16.63;11.37;;;10.90;99.80;;;;;;6137773;23;20939;-85
2021/04/29 04:54:48;;;;;;;16.23;11.50;;;10.90;99.80;;;;;;6131527;23;20447;-84
2021/04/29 04:57:16;;;;;;;16.40;11.10;;;10.90;99.80;;;;;;6139042;23;20831;-84
2021/04/29 04:59:43;;;;;;;17.97;12.00;;;10.90;99.80;;;;;;6128869;23;21006;-85
2021/04/29 05:02:10;;;;;;;16.93;12.10;;;10.90;99.80;;;;;;6124777;23;20527;-85
2021/04/29 05:04:38;;;;;;;19.87;14.13;;;11.00;99.80;;;;;;6137101;23;20513;-84
2021/04/29 05:07:06;;;;;;;20.20;13.20;;;11.00;99.80;;;;;;6142016;23;20454;-84
2021/04/29 05:09:34;;;;;;;16.13;11.93;;;11.10;99.80;;;;;;6130215;23;20440;-86
2021/04/29 05:12:01;;;;;;;15.67;11.67;;;11.10;99.80;;;;;;6138227;23;20957;-82
2021/04/29 05:14:29;;;;;;;18.23;12.63;;;11.20;99.80;;;;;;6138334;23;20461;-85
2021/04/29 05:16:57;;;;;;;17.23;12.10;;;11.20;99.80;;;;;;6147750;23;20442;-85
2021/04/29 05:19:24;;;;;;;18.60;13.07;;;11.30;99.80;;;;;;6151703;23;20498;-84
2021/04/29 05:21:52;;;;;;;18.77;14.10;;;11.50;99.80;;;;;;6154036;23;20461;-85
2021/04/29 05:24:19;;;;;;;17.00;12.73;;;11.50;99.80;;;;;;6129758;23;20464;-84
2021/04/29 05:26:46;;;;;;;17.20;11.90;;;11.60;99.80;;;;;;6129518;23;20530;-85
2021/04/29 05:29:13;;;;;;;17.97;12.93;;;11.80;99.80;;;;;;6128247;23;20812;-87
2021/04/29 05:31:40;;;;;;;18.57;13.27;;;12.00;99.80;;;;;;6145290;23;20513;-86
2021/04/29 05:34:07;;;;;;;17.50;12.43;;;12.10;99.80;;;;;;6134923;23;20767;-86
2021/04/29 05:36:35;;;;;;;23.37;13.23;;;12.20;99.80;;;;;;6138222;23;20457;-86
2021/04/29 05:39:03;;;;;;;20.40;13.37;;;12.10;99.80;;;;;;6124322;23;20791;-87
2021/04/29 05:41:30;;;;;;;19.03;13.77;;;12.10;99.80;;;;;;6134663;23;20495;-86
2021/04/29 05:43:57;;;;;;;17.73;13.30;;;12.00;99.80;;;;;;6134888;23;20440;-88
2021/04/29 05:46:24;;;;;;;20.63;13.40;;;12.00;99.80;;;;;;6140384;23;20484;-86
2021/04/29 05:48:52;;;;;;;17.37;12.73;;;12.00;99.80;;;;;;6145096;23;20475;-86
2021/04/29 05:51:18;;;;;;;21.40;12.60;;;12.00;99.80;;;;;;6149882;23;20976;-86
2021/04/29 05:53:46;;;;;;;19.43;12.93;;;12.00;99.80;;;;;;6140339;23;20458;-86
2021/04/29 05:56:15;;;;;;;19.20;12.97;;;12.10;99.80;;;;;;6140503;23;20445;-85
2021/04/29 05:58:42;;;;;;;18.70;12.90;;;12.10;99.80;;;;;;6121112;23;20451;-86
2021/04/29 06:01:10;;;;;;;14.23;11.40;;;12.00;99.80;;;;;;6112000;23;20461;-86
2021/04/29 06:03:37;;;;;;;21.17;13.90;;;11.90;99.80;;;;;;6147991;23;20521;-86
2021/04/29 06:06:05;;;;;;;17.33;12.13;;;11.80;99.80;;;;;;6128373;23;20855;-87
2021/04/29 06:08:32;;;;;;;20.70;13.67;;;11.90;99.80;;;;;;6127924;23;21008;-87
2021/04/29 06:10:59;;;;;;;19.27;13.20;;;11.80;99.80;;;;;;6133208;23;20896;-85
2021/04/29 06:13:27;;;;;;;19.30;13.20;;;11.80;99.80;;;;;;6130454;23;20466;-85
2021/04/29 06:15:54;;;;;;;20.57;12.93;;;11.80;99.80;;;;;;6133787;23;20447;-87
2021/04/29 06:18:21;;;;;;;20.83;13.43;;;11.80;99.80;;;;;;6135913;23;20820;-88
2021/04/29 06:20:48;;;;;;;18.00;12.93;;;11.80;99.80;;;;;;6123811;23;20446;-87
2021/04/29 06:23:15;;;;;;;19.60;12.93;;;11.80;99.80;;;;;;6138048;23;20438;-88
2021/04/29 06:25:42;;;;;;;22.53;13.10;;;11.80;99.80;;;;;;6144037;23;20438;-87
2021/04/29 06:28:09;;;;;;;21.53;14.30;;;11.90;99.80;;;;;;6133163;23;20513;-90
2021/04/29 06:30:38;;;;;;;18.73;12.60;;;11.90;99.80;;;;;;6150233;23;20469;-85
2021/04/29 06:33:05;;;;;;;21.60;12.40;;;12.00;99.80;;;;;;6145637;23;20517;-88
2021/04/29 06:35:32;;;;;;;18.00;12.77;;;12.10;99.80;;;;;;6135397;23;20444;-88
2021/04/29 06:37:59;;;;;;;17.80;12.33;;;12.10;99.80;;;;;;6137023;23;20467;-88
2021/04/29 06:40:26;;;;;;;17.30;12.50;;;12.10;99.80;;;;;;6135676;23;20979;-88
2021/04/29 06:42:53;;;;;;;19.50;12.13;;;12.20;99.80;;;;;;6106743;23;20942;-88
2021/04/29 06:45:21;;;;;;;17.37;11.47;;;12.30;99.80;;;;;;6143571;23;20443;-88
2021/04/29 06:47:49;;;;;;;17.73;11.70;;;12.50;99.80;;;;;;6127470;23;20452;-87
2021/04/29 06:50:17;;;;;;;17.50;12.30;;;12.60;99.80;;;;;;6125364;23;21323;-86
2021/04/29 06:52:45;;;;;;;18.57;12.17;;;12.70;99.80;;;;;;6130555;23;20763;-88
2021/04/29 06:55:13;;;;;;;17.20;11.77;;;12.80;99.80;;;;;;6094747;23;20918;-88
2021/04/29 06:57:40;;;;;;;20.10;12.10;;;12.90;99.80;;;;;;6130070;23;20518;-89
2021/04/29 07:00:09;;;;;;;15.63;12.50;;;13.10;99.80;;;;;;6119590;23;20438;-87
2021/04/29 07:02:36;;;;;;;19.37;12.60;;;13.20;99.80;;;;;;6140277;23;20501;-87
2021/04/29 07:05:06;;;;;;;17.13;11.37;;;13.20;99.80;;;;;;6146347;23;20439;-88
2021/04/29 07:07:33;;;;;;;21.47;12.30;;;13.30;99.80;;;;;;6137372;23;20549;-87
2021/04/29 07:10:00;;;;;;;19.33;13.03;;;13.30;99.80;;;;;;6124535;23;20507;-88
2021/04/29 07:12:27;;;;;;;18.97;12.20;;;13.30;99.80;;;;;;6122234;23;21081;-88
2021/04/29 07:14:54;;;;;;;18.47;12.27;;;13.30;99.80;;;;;;6135694;23;20831;-88
2021/04/29 07:17:21;;;;;;;15.60;11.70;;;13.30;99.80;;;;;;6143769;23;21208;-87
2021/04/29 07:19:48;;;;;;;18.13;11.73;;;13.50;99.80;;;;;;6124103;23;20912;-88
2021/04/29 07:22:17;;;;;;;17.17;12.23;;;13.50;99.80;;;;;;6129239;23;20434;-88
2021/04/29 07:24:44;;;;;;;21.03;13.17;;;13.60;99.80;;;;;;6134990;23;20456;-88
2021/04/29 07:27:11;;;;;;;18.50;12.80;;;13.70;99.80;;;;;;6122840;23;20473;-86
2021/04/29 07:29:38;;;;;;;18.13;11.67;;;13.70;99.80;;;;;;6137700;23;20437;-87
2021/04/29 07:32:06;;;;;;;16.23;11.37;;;13.80;99.80;;;;;;6144869;23;20456;-86
2021/04/29 07:34:34;;;;;;;16.33;11.40;;;14.00;99.80;;;;;;6141583;23;20440;-87
2021/04/29 07:37:01;;;;;;;13.70;10.33;;;14.10;99.80;;;;;;6141378;23;20437;-88
2021/04/29 07:39:31;;;;;;;15.60;11.03;;;14.10;99.80;;;;;;6134665;23;20437;-87
2021/04/29 07:41:58;;;;;;;16.93;10.20;;;14.30;99.80;;;;;;6123049;23;20980;-87
2021/04/29 07:44:25;;;;;;;13.83;10.53;;;14.50;99.80;;;;;;6116100;23;20524;-87
2021/04/29 07:46:52;;;;;;;16.63;10.03;;;14.70;99.80;;;;;;6144173;23;20890;-89
2021/04/29 07:49:19;;;;;;;13.40;10.80;;;14.90;99.80;;;;;;6134522;23;20998;-87
2021/04/29 07:51:46;;;;;;;15.07;10.07;;;14.70;99.80;;;;;;6135786;23;20452;-87
2021/04/29 07:54:14;;;;;;;14.20;10.00;;;14.60;99.80;;;;;;6133053;23;20470;-89
2021/04/29 07:56:42;;;;;;;12.10;9.87;;;14.50;99.80;;;;;;6138012;23;20443;-87
2021/04/29 07:59:09;;;;;;;14.03;10.50;;;14.60;99.80;;;;;;6107266;23;20830;-88
2021/04/29 08:01:43;;;;;;;13.93;10.80;;;14.70;99.80;;;;;;6140245;23;20458;-87
2021/04/29 08:04:10;;;;;;;13.93;10.40;;;14.70;99.80;;;;;;6143759;23;20529;-88
2021/04/29 08:06:37;;;;;;;12.10;9.20;;;14.60;99.80;;;;;;6142846;23;20451;-88
2021/04/29 08:09:05;;;;;;;13.27;9.80;;;14.50;99.80;;;;;;6141873;23;20562;-88
2021/04/29 08:11:32;;;;;;;12.63;9.17;;;14.30;99.80;;;;;;6130450;23;21291;-88
2021/04/29 08:14:00;;;;;;;13.23;9.50;;;14.30;99.80;;;;;;6128409;23;20436;-88
2021/04/29 08:16:27;;;;;;;13.87;10.23;;;14.30;99.80;;;;;;6140250;23;20445;-89
2021/04/29 08:18:54;;;;;;;12.13;9.70;;;14.30;99.80;;;;;;6145690;23;20444;-88
2021/04/29 08:21:41;;;;;;;13.37;9.70;;;14.30;99.80;;;;;;6132453;23;20443;-91
2021/04/29 08:24:08;;;;;;;15.30;10.53;;;14.50;99.80;;;;;;6119020;23;20440;-88
2021/04/29 08:26:37;;;;;;;15.67;9.60;;;14.50;99.80;;;;;;6132737;23;20515;-87
2021/04/29 08:29:05;;;;;;;11.53;9.20;;;14.50;99.80;;;;;;6119374;23;20502;-88
2021/04/29 08:31:32;;;;;;;11.90;9.97;;;14.70;99.80;;;;;;6116233;23;20468;-89
2021/04/29 08:34:00;;;;;;;11.63;8.93;;;14.70;99.80;;;;;;6124147;23;20471;-88
2021/04/29 08:36:29;;;;;;;12.60;9.03;;;14.90;99.80;;;;;;6123363;23;20442;-88
2021/04/29 08:38:57;;;;;;;13.00;9.23;;;15.10;99.80;;;;;;6136630;23;20441;-88
2021/04/29 08:41:24;;;;;;;10.20;8.43;;;15.40;99.80;;;;;;6139852;23;20953;-88
2021/04/29 08:43:51;;;;;;;14.13;10.40;;;15.70;99.80;;;;;;6119019;23;20441;-88
2021/04/29 08:46:19;;;;;;;10.90;8.30;;;15.80;99.00;;;;;;6140875;23;20521;-86
2021/04/29 08:48:51;;;;;;;11.10;8.70;;;15.70;96.80;;;;;;6134896;23;20479;-87
2021/04/29 08:51:20;;;;;;;9.30;7.90;;;15.70;97.10;;;;;;6141940;23;20540;-88
2021/04/29 08:53:48;;;;;;;10.10;7.87;;;15.80;96.50;;;;;;6119437;23;20982;-88
2021/04/29 08:56:16;;;;;;;9.83;8.17;;;15.80;97.10;;;;;;6110226;23;20943;-88
2021/04/29 08:58:46;;;;;;;9.20;7.93;;;16.00;96.80;;;;;;6113405;23;20576;-87
2021/04/29 09:01:13;;;;;;;17.50;8.83;;;16.30;97.50;;;;;;6087277;23;20469;-88
2021/04/29 09:03:41;;;;;;;9.80;8.60;;;16.50;95.20;;;;;;6098112;23;20807;-88
2021/04/29 09:06:08;;;;;;;8.33;7.53;;;16.40;94.60;;;;;;6113988;23;20443;-89
2021/04/29 09:08:37;;;;;;;8.70;7.47;;;16.00;93.60;;;;;;6117970;23;20544;-88
2021/04/29 09:11:09;;;;;;;9.20;7.43;;;15.70;93.60;;;;;;6122835;23;20512;-88
2021/04/29 09:13:36;;;;;;;8.80;7.97;;;15.50;94.00;;;;;;6127789;23;20444;-87
2021/04/29 09:16:08;;;;;;;13.40;9.17;;;15.40;93.40;;;;;;6137544;23;20792;-87
2021/04/29 09:18:36;;;;;;;11.50;8.00;;;15.40;95.00;;;;;;6140479;23;20445;-87
2021/04/29 09:21:07;;;;;;;10.17;8.10;;;15.50;95.80;;;;;;6144203;23;20773;-88
2021/04/29 09:23:36;;;;;;;11.60;8.00;;;15.40;93.40;;;;;;6135802;23;20456;-88
2021/04/29 09:26:07;;;;;;;9.50;8.30;;;15.40;93.80;;;;;;6131658;23;20445;-88
2021/04/29 09:28:39;;;;;;;9.10;7.80;;;15.40;94.90;;;;;;6116029;23;20460;-88
2021/04/29 09:31:09;;;;;;;18.10;8.17;;;15.60;93.10;;;;;;6125186;23;20828;-87
2021/04/29 09:33:38;;;;;;;9.43;8.23;;;15.60;93.10;;;;;;6129242;23;20433;-88
2021/04/29 09:36:07;;;;;;;10.97;8.97;;;15.60;93.70;;;;;;6115710;23;20430;-86
2021/04/29 09:38:38;;;;;;;10.13;8.20;;;15.80;94.50;;;;;;6116434;23;20443;-87
2021/04/29 09:41:07;;;;;;;12.20;8.60;;;15.80;92.80;;;;;;6117617;23;20444;-87
2021/04/29 09:43:35;;;;;;;8.43;7.00;;;15.80;92.70;;;;;;6100736;23;20440;-87
2021/04/29 09:46:04;;;;;;;9.27;7.70;;;16.00;92.50;;;;;;6141362;23;20441;-88
2021/04/29 09:48:36;;;;;;;9.40;7.60;;;16.10;92.10;;;;;;6144022;23;20468;-88
2021/04/29 09:51:03;;;;;;;9.30;7.13;;;16.20;88.40;;;;;;6142909;23;21119;-86
2021/04/29 09:53:47;;;;;;;11.00;7.70;;;16.20;88.00;;;;;;6141708;23;21054;-87
2021/04/29 09:56:20;;;;;;;9.70;7.73;;;16.20;88.90;;;;;;6115624;23;20445;-87
2021/04/29 09:58:49;;;;;;;10.53;7.40;;;16.30;88.00;;;;;;6121025;23;20446;-88
2021/04/29 10:01:16;;;;;;;8.90;6.30;;;16.40;90.20;;;;;;6131347;23;20437;-87
2021/04/29 10:03:44;;;;;;;8.13;6.77;;;16.60;83.60;;;;;;6144548;23;20468;-87
2021/04/29 10:06:15;;;;;;;7.87;5.80;;;16.50;83.90;;;;;;6116332;23;20449;-86
2021/04/29 10:08:43;;;;;;;7.40;6.27;;;16.60;83.20;;;;;;6099682;23;20520;-88
2021/04/29 10:11:11;;;;;;;6.53;5.90;;;16.80;84.60;;;;;;6117537;23;20513;-87
2021/04/29 10:13:42;;;;;;;8.93;6.37;;;16.90;82.90;;;;;;6114313;23;20438;-87
2021/04/29 10:16:09;;;;;;;6.90;5.50;;;17.10;83.40;;;;;;6098982;23;20508;-88
2021/04/29 10:18:38;;;;;;;6.97;6.27;;;17.40;85.20;;;;;;6113615;23;20480;-88
2021/04/29 10:21:06;;;;;;;7.30;6.60;;;17.80;83.00;;;;;;6123244;23;20762;-87
2021/04/29 10:23:33;;;;;;;8.13;6.07;;;18.30;79.90;;;;;;6100595;23;20493;-89
2021/04/29 10:26:05;;;;;;;6.93;5.63;;;18.30;77.00;;;;;;6117842;23;20541;-87
2021/04/29 10:28:34;;;;;;;7.03;6.30;;;18.40;78.90;;;;;;6115722;23;20437;-88
2021/04/29 10:31:14;;;;;;;7.57;6.87;;;18.40;79.00;;;;;;6133355;23;22504;-88
2021/04/29 10:33:49;;;;;;;6.80;6.20;;;18.80;80.90;;;;;;6145891;23;20429;-88
2021/04/29 10:36:17;;;;;;;8.77;6.03;;;19.80;74.80;;;;;;6130784;23;20436;-88
2021/04/29 10:38:50;;;;;;;8.03;5.80;;;19.80;73.20;;;;;;6101576;23;20529;-87
2021/04/29 10:41:43;;;;;;;6.70;5.80;;;19.50;73.80;;;;;;6097359;23;20437;-88
2021/04/29 10:44:15;;;;;;;7.90;6.77;;;19.50;75.00;;;;;;6115040;23;20426;-89
2021/04/29 10:46:43;;;;;;;8.17;6.10;;;18.70;74.70;;;;;;6112488;23;20437;-87
2021/04/29 10:49:13;;;;;;;2.97;2.73;;;17.80;76.60;;;;;;6126251;23;20468;-85
2021/04/29 10:51:41;;;;;;;3.87;2.13;;;15.30;83.10;;;;;;6129449;23;20508;-86
2021/04/29 10:54:20;;;;;;;3.47;2.50;;;13.60;91.00;;;;;;6110276;23;20439;-84
2021/04/29 10:57:04;;;;;;;2.60;2.40;;;12.20;98.70;;;;;;6127842;23;20438;-83
2021/04/29 10:59:40;;;;;;;3.80;2.90;;;11.30;99.80;;;;;;6119177;23;20446;-86
2021/04/29 11:02:07;;;;;;;8.13;3.00;;;10.90;99.80;;;;;;6137029;23;20439;-85
2021/04/29 11:04:42;;;;;;;5.53;3.23;;;10.70;99.80;;;;;;6139973;23;20441;-85
2021/04/29 11:07:10;;;;;;;4.07;3.30;;;10.80;99.80;;;;;;6142646;23;20437;-86
2021/04/29 11:09:37;;;;;;;3.90;2.60;;;11.10;99.80;;;;;;6103924;23;20755;-86
2021/04/29 11:12:08;;;;;;;5.53;3.20;;;11.30;99.80;;;;;;6126300;23;20438;-86
2021/04/29 11:14:40;;;;;;;3.27;2.97;;;11.40;99.80;;;;;;6112545;23;20985;-86
2021/04/29 11:17:19;;;;;;;6.73;4.23;;;11.40;99.80;;;;;;6145818;23;20499;-86
2021/04/29 11:19:48;;;;;;;5.50;4.03;;;11.40;99.80;;;;;;6124059;23;21295;-85
2021/04/29 11:28:43;;;;;;;7.93;5.90;;;12.20;99.80;;;;;;6083611;23;20570;-86
2021/04/29 11:31:10;;;;;;;6.40;4.93;;;13.00;99.80;;;;;;6141944;23;21131;-85
2021/04/29 11:33:40;;;;;;;6.07;5.03;;;13.80;99.80;;;;;;6144918;23;20967;-85
2021/04/29 11:36:16;;;;;;;4.17;3.80;;;14.50;99.80;;;;;;6139930;23;20496;-86
2021/04/29 11:38:50;;;;;;;3.87;3.40;;;15.00;96.20;;;;;;6138238;23;20471;-86
2021/04/29 11:41:17;;;;;;;4.97;4.47;;;15.50;95.40;;;;;;6099249;23;20503;-86
2021/04/29 11:43:55;;;;;;;5.50;4.20;;;16.00;92.50;;;;;;6113837;23;20493;-86
2021/04/29 11:46:23;;;;;;;5.00;4.60;;;16.10;92.20;;;;;;6125463;23;20511;-86
2021/04/29 11:48:58;;;;;;;6.17;5.13;;;16.30;88.80;;;;;;6143891;23;20461;-85
2021/04/29 11:51:26;;;;;;;6.50;5.87;;;16.40;90.00;;;;;;6115418;23;20815;-86
2021/04/29 11:53:53;;;;;;;5.63;5.13;;;16.70;86.60;;;;;;6101903;23;20863;-86
2021/04/29 11:56:20;;;;;;;15.60;6.90;;;17.60;87.10;;;;;;6100353;23;20529;-86
2021/04/29 11:59:02;;;;;;;6.50;5.47;;;19.70;78.90;;;;;;6113969;23;20469;-87
2021/04/29 12:01:29;;;;;;;7.70;6.07;;;21.80;76.60;;;;;;6115165;23;20438;-86
2021/04/29 12:03:56;;;;;;;13.67;5.93;;;21.70;71.90;;;;;;6071675;23;20482;-87
2021/04/29 12:06:23;;;;;;;5.87;5.37;;;23.60;65.90;;;;;;6089684;23;20497;-87
2021/04/29 12:08:51;;;;;;;6.43;5.57;;;23.50;65.90;;;;;;6116392;23;20446;-87
2021/04/29 12:11:18;;;;;;;6.23;5.00;;;26.00;61.10;;;;;;6077184;23;20441;-88
2021/04/29 12:13:51;;;;;;;5.03;4.50;;;26.00;61.10;;;;;;6098533;23;20509;-87
2021/04/29 12:16:22;;;;;;;3.70;3.43;;;26.70;53.00;;;;;;6142870;23;20956;-87
2021/04/29 12:18:51;;;;;;;5.47;3.10;;;26.30;56.70;;;;;;6144394;23;20474;-87
2021/04/29 12:21:21;;;;;;;4.60;3.60;;;26.30;56.80;;;;;;6128115;23;20561;-88
2021/04/29 12:23:56;;;;;;;3.70;3.40;;;26.90;54.30;;;;;;6114505;23;20495;-87
2021/04/29 12:26:30;;;;;;;3.30;3.00;;;26.80;51.60;;;;;;6099154;23;20433;-87
2021/04/29 12:29:00;;;;;;;3.07;2.80;;;26.80;52.10;;;;;;6113986;23;20997;-86
2021/04/29 12:31:28;;;;;;;4.73;3.50;;;27.10;51.10;;;;;;6127467;23;20440;-87
2021/04/29 12:34:03;;;;;;;3.23;2.93;;;27.10;50.80;;;;;;6116559;23;20500;-88
2021/04/29 12:36:31;;;;;;;5.97;3.40;;;27.70;50.20;;;;;;6104107;23;20436;-86
2021/04/29 12:38:59;;;;;;;6.43;3.77;;;27.50;50.60;;;;;;6098577;23;20524;-87
2021/04/29 12:41:27;;;;;;;4.37;3.97;;;27.80;49.50;;;;;;6114596;23;20434;-88
2021/04/29 12:43:59;;;;;;;9.53;3.53;;;26.80;49.70;;;;;;6115288;23;20457;-88
2021/04/29 12:46:31;;;;;;;5.93;4.17;;;26.40;50.80;;;;;;6126693;23;20421;-88
2021/04/29 12:48:58;;;;;;;3.90;3.67;;;26.70;50.30;;;;;;6138762;23;20500;-87